^^
Station Historical Data
Daily Summary for July 11, 2017 Units:  Both    English   Metric
« Previous Day
Next Day »
Daily Weekly Monthly Yearly Custom
  High: Low: Average:
Temperature: 77.5 °F /  25.3 °C 48.6 °F /  9.2 °C 61.5 °F /  16.4 °C
Dew Point: 40.3 °F /  4.6 °C 26.6 °F /  -3 °C 34.7 °F /  1.5 °C
Humidity: 52% 24% 38%
Wind Speed: 8.1mph /  13km/h - 0.8mph /  1.3km/h
Wind Gust: 13.0mph /  20.9km/h - -
Wind- - SW
Pressure: 30.34 in /  1027.3 hPa 30.22 in /  1023.2 hPa -
Precipitation: 0.00 in /  0 mm    
Historical Graphs
 
 
Tabular Data for July 11, 2017
Time Temperature Dew Point Pressure Wind Wind Speed Wind Gust Humidity Rainfall Rate (Hourly) solar Conditions
00:04 50.4 °F /  10.2 °C 29.8 °F /  -1.2 °C 30.31in /  1026.3hPa Calm     45% 0.00in /  0mm 0.0 W/m2
00:11 50.2 °F /  10.1 °C 29.7 °F /  -1.3 °C 30.30in /  1026hPa Calm     45% 0.00in /  0mm 0.0 W/m2
00:17 50.0 °F /  10 °C 29.5 °F /  -1.4 °C 30.30in /  1026hPa Calm     45% 0.00in /  0mm 0.0 W/m2
00:23 50.2 °F /  10.1 °C 29.1 °F /  -1.6 °C 30.30in /  1026hPa Calm     44% 0.00in /  0mm 0.0 W/m2
00:29 50.4 °F /  10.2 °C 29.3 °F /  -1.5 °C 30.31in /  1026.3hPa Calm   2.0mph /  3.2km/h 44% 0.00in /  0mm 0.0 W/m2
00:35 50.4 °F /  10.2 °C 29.3 °F /  -1.5 °C 30.30in /  1026hPa Calm     44% 0.00in /  0mm 0.0 W/m2
00:41 50.4 °F /  10.2 °C 28.8 °F /  -1.8 °C 30.31in /  1026.3hPa Calm   1.0mph /  1.6km/h 43% 0.00in /  0mm 0.0 W/m2
00:47 50.4 °F /  10.2 °C 28.8 °F /  -1.8 °C 30.30in /  1026hPa Calm     43% 0.00in /  0mm 0.0 W/m2
00:53 50.2 °F /  10.1 °C 29.1 °F /  -1.6 °C 30.30in /  1026hPa Calm     44% 0.00in /  0mm 0.0 W/m2
00:59 50.0 °F /  10 °C 28.4 °F /  -2 °C 30.30in /  1026hPa Calm     43% 0.00in /  0mm 0.0 W/m2
01:05 49.8 °F /  9.9 °C 28.2 °F /  -2.1 °C 30.30in /  1026hPa Calm   1.0mph /  1.6km/h 43% 0.00in /  0mm 0.0 W/m2
01:11 50.0 °F /  10 °C 28.4 °F /  -2 °C 30.29in /  1025.6hPa Calm   2.0mph /  3.2km/h 43% 0.00in /  0mm 0.0 W/m2
01:17 49.8 °F /  9.9 °C 27.7 °F /  -2.4 °C 30.29in /  1025.6hPa Calm   6.0mph /  9.7km/h 42% 0.00in /  0mm 0.0 W/m2
01:23 49.8 °F /  9.9 °C 27.7 °F /  -2.4 °C 30.29in /  1025.6hPa Calm   2.0mph /  3.2km/h 42% 0.00in /  0mm 0.0 W/m2
01:29 49.8 °F /  9.9 °C 27.7 °F /  -2.4 °C 30.29in /  1025.6hPa Calm   1.0mph /  1.6km/h 42% 0.00in /  0mm 0.0 W/m2
01:35 49.6 °F /  9.8 °C 27.5 °F /  -2.5 °C 30.29in /  1025.6hPa Calm     42% 0.00in /  0mm 0.0 W/m2
01:41 49.8 °F /  9.9 °C 27.7 °F /  -2.4 °C 30.29in /  1025.6hPa ESE 0.9mph /  1.4km/h 1.0mph /  1.6km/h 42% 0.00in /  0mm 0.0 W/m2
01:47 49.8 °F /  9.9 °C 27.1 °F /  -2.7 °C 30.29in /  1025.6hPa Calm     41% 0.00in /  0mm 0.0 W/m2
01:53 49.8 °F /  9.9 °C 27.7 °F /  -2.4 °C 30.28in /  1025.3hPa Calm     42% 0.00in /  0mm 0.0 W/m2
01:59 49.6 °F /  9.8 °C 27.5 °F /  -2.5 °C 30.28in /  1025.3hPa Calm   2.0mph /  3.2km/h 42% 0.00in /  0mm 0.0 W/m2
02:05 49.5 °F /  9.7 °C 26.8 °F /  -2.9 °C 30.28in /  1025.3hPa Calm   1.0mph /  1.6km/h 41% 0.00in /  0mm 0.0 W/m2
02:12 49.5 °F /  9.7 °C 26.8 °F /  -2.9 °C 30.28in /  1025.3hPa Calm     41% 0.00in /  0mm 0.0 W/m2
02:17 49.3 °F /  9.6 °C 27.1 °F /  -2.7 °C 30.28in /  1025.3hPa Calm     42% 0.00in /  0mm 0.0 W/m2
02:23 49.1 °F /  9.5 °C 27.0 °F /  -2.8 °C 30.27in /  1024.9hPa Calm     42% 0.00in /  0mm 0.0 W/m2
02:29 48.9 °F /  9.4 °C 27.3 °F /  -2.6 °C 30.27in /  1024.9hPa Calm     43% 0.00in /  0mm 0.0 W/m2
02:35 48.7 °F /  9.3 °C 26.6 °F /  -3 °C 30.27in /  1024.9hPa ESE 2.0mph /  3.2km/h 3.0mph /  4.8km/h 42% 0.00in /  0mm 0.0 W/m2
02:41 48.7 °F /  9.3 °C 27.3 °F /  -2.6 °C 30.27in /  1024.9hPa Calm   4.0mph /  6.4km/h 43% 0.00in /  0mm 0.0 W/m2
02:48 48.6 °F /  9.2 °C 27.1 °F /  -2.7 °C 30.27in /  1024.9hPa Calm     43% 0.00in /  0mm 0.0 W/m2
02:54 48.7 °F /  9.3 °C 27.3 °F /  -2.6 °C 30.27in /  1024.9hPa Calm   1.0mph /  1.6km/h 43% 0.00in /  0mm 0.0 W/m2
03:00 48.9 °F /  9.4 °C 26.8 °F /  -2.9 °C 30.28in /  1025.3hPa Calm   1.0mph /  1.6km/h 42% 0.00in /  0mm 0.0 W/m2
03:06 49.1 °F /  9.5 °C 27.0 °F /  -2.8 °C 30.28in /  1025.3hPa Calm     42% 0.00in /  0mm 0.0 W/m2
03:12 49.1 °F /  9.5 °C 27.0 °F /  -2.8 °C 30.28in /  1025.3hPa Calm   2.0mph /  3.2km/h 42% 0.00in /  0mm 0.0 W/m2
03:18 49.3 °F /  9.6 °C 27.1 °F /  -2.7 °C 30.28in /  1025.3hPa Calm   2.0mph /  3.2km/h 42% 0.00in /  0mm 0.0 W/m2
03:24 49.3 °F /  9.6 °C 27.1 °F /  -2.7 °C 30.28in /  1025.3hPa Calm     42% 0.00in /  0mm 0.0 W/m2
03:30 49.5 °F /  9.7 °C 27.3 °F /  -2.6 °C 30.28in /  1025.3hPa Calm     42% 0.00in /  0mm 0.0 W/m2
03:36 49.5 °F /  9.7 °C 27.3 °F /  -2.6 °C 30.28in /  1025.3hPa Calm   3.0mph /  4.8km/h 42% 0.00in /  0mm 0.0 W/m2
03:42 49.3 °F /  9.6 °C 27.1 °F /  -2.7 °C 30.28in /  1025.3hPa Calm     42% 0.00in /  0mm 0.0 W/m2
03:48 49.1 °F /  9.5 °C 27.5 °F /  -2.5 °C 30.28in /  1025.3hPa Calm   1.0mph /  1.6km/h 43% 0.00in /  0mm 0.0 W/m2
03:54 49.1 °F /  9.5 °C 27.5 °F /  -2.5 °C 30.28in /  1025.3hPa Calm   1.0mph /  1.6km/h 43% 0.00in /  0mm 0.0 W/m2
04:00 49.1 °F /  9.5 °C 27.5 °F /  -2.5 °C 30.28in /  1025.3hPa Calm   2.0mph /  3.2km/h 43% 0.00in /  0mm 0.0 W/m2
04:06 48.9 °F /  9.4 °C 27.3 °F /  -2.6 °C 30.27in /  1024.9hPa Calm     43% 0.00in /  0mm 0.0 W/m2
04:12 48.9 °F /  9.4 °C 28.0 °F /  -2.2 °C 30.28in /  1025.3hPa NE 0.9mph /  1.4km/h 3.0mph /  4.8km/h 44% 0.00in /  0mm 0.0 W/m2
04:18 48.9 °F /  9.4 °C 27.3 °F /  -2.6 °C 30.28in /  1025.3hPa Calm     43% 0.00in /  0mm 0.0 W/m2
04:24 48.9 °F /  9.4 °C 28.0 °F /  -2.2 °C 30.28in /  1025.3hPa Calm   3.0mph /  4.8km/h 44% 0.00in /  0mm 0.0 W/m2
04:30 49.1 °F /  9.5 °C 28.0 °F /  -2.2 °C 30.28in /  1025.3hPa Calm     44% 0.00in /  0mm 0.0 W/m2
04:36 48.9 °F /  9.4 °C 28.6 °F /  -1.9 °C 30.28in /  1025.3hPa Calm   1.0mph /  1.6km/h 45% 0.00in /  0mm 0.0 W/m2
04:42 48.7 °F /  9.3 °C 28.4 °F /  -2 °C 30.28in /  1025.3hPa Calm   1.0mph /  1.6km/h 45% 0.00in /  0mm 0.0 W/m2
04:48 48.7 °F /  9.3 °C 28.4 °F /  -2 °C 30.28in /  1025.3hPa Calm     45% 0.00in /  0mm 0.0 W/m2
04:54 48.7 °F /  9.3 °C 28.4 °F /  -2 °C 30.28in /  1025.3hPa Calm   3.0mph /  4.8km/h 45% 0.00in /  0mm 0.0 W/m2
05:00 48.6 °F /  9.2 °C 28.8 °F /  -1.8 °C 30.28in /  1025.3hPa Calm     46% 0.00in /  0mm 0.0 W/m2
05:06 48.6 °F /  9.2 °C 28.8 °F /  -1.8 °C 30.28in /  1025.3hPa Calm   1.0mph /  1.6km/h 46% 0.00in /  0mm 0.0 W/m2
05:12 48.6 °F /  9.2 °C 29.3 °F /  -1.5 °C 30.28in /  1025.3hPa Calm   1.0mph /  1.6km/h 47% 0.00in /  0mm 0.0 W/m2
05:18 48.7 °F /  9.3 °C 29.5 °F /  -1.4 °C 30.28in /  1025.3hPa Calm   3.0mph /  4.8km/h 47% 0.00in /  0mm 0.0 W/m2
05:24 48.7 °F /  9.3 °C 29.5 °F /  -1.4 °C 30.28in /  1025.3hPa Calm   5.0mph /  8km/h 47% 0.00in /  0mm 0.0 W/m2
05:30 48.7 °F /  9.3 °C 29.5 °F /  -1.4 °C 30.28in /  1025.3hPa Calm   3.0mph /  4.8km/h 47% 0.00in /  0mm 0.0 W/m2
05:36 48.6 °F /  9.2 °C 29.3 °F /  -1.5 °C 30.28in /  1025.3hPa Calm   1.0mph /  1.6km/h 47% 0.00in /  0mm 0.0 W/m2
05:42 48.6 °F /  9.2 °C 29.8 °F /  -1.2 °C 30.28in /  1025.3hPa Calm   4.0mph /  6.4km/h 48% 0.00in /  0mm 0.0 W/m2
05:48 48.6 °F /  9.2 °C 29.8 °F /  -1.2 °C 30.28in /  1025.3hPa Calm     48% 0.00in /  0mm 0.0 W/m2
05:54 48.7 °F /  9.3 °C 29.8 °F /  -1.2 °C 30.28in /  1025.3hPa Calm     48% 0.00in /  0mm 0.0 W/m2
06:00 48.7 °F /  9.3 °C 29.8 °F /  -1.2 °C 30.28in /  1025.3hPa Calm     48% 0.00in /  0mm 0.0 W/m2
06:06 48.6 °F /  9.2 °C 30.2 °F /  -1 °C 30.29in /  1025.6hPa Calm     49% 0.00in /  0mm 0.0 W/m2
06:12 48.6 °F /  9.2 °C 29.8 °F /  -1.2 °C 30.29in /  1025.6hPa Calm     48% 0.00in /  0mm 0.0 W/m2
06:18 48.6 °F /  9.2 °C 29.8 °F /  -1.2 °C 30.29in /  1025.6hPa Calm     48% 0.00in /  0mm 0.0 W/m2
06:24 48.6 °F /  9.2 °C 30.2 °F /  -1 °C 30.29in /  1025.6hPa Calm     49% 0.00in /  0mm 0.0 W/m2
06:28 48.6 °F /  9.2 °C 30.2 °F /  -1 °C 30.29in /  1025.6hPa Calm     49% 0.00in /  0mm 0.0 W/m2
06:34 48.6 °F /  9.2 °C 30.2 °F /  -1 °C 30.30in /  1026hPa Calm   5.0mph /  8km/h 49% 0.00in /  0mm 0.0 W/m2
06:40 48.7 °F /  9.3 °C 30.4 °F /  -0.9 °C 30.30in /  1026hPa Calm   1.0mph /  1.6km/h 49% 0.00in /  0mm 7.0 W/m2
06:46 48.7 °F /  9.3 °C 30.4 °F /  -0.9 °C 30.30in /  1026hPa ESE 2.9mph /  4.7km/h 3.0mph /  4.8km/h 49% 0.00in /  0mm 11.0 W/m2
06:52 48.9 °F /  9.4 °C 30.6 °F /  -0.8 °C 30.30in /  1026hPa Calm     49% 0.00in /  0mm 14.0 W/m2
06:58 48.9 °F /  9.4 °C 30.6 °F /  -0.8 °C 30.30in /  1026hPa East 0.9mph /  1.4km/h 2.0mph /  3.2km/h 49% 0.00in /  0mm 18.0 W/m2
07:04 49.1 °F /  9.5 °C 30.7 °F /  -0.7 °C 30.31in /  1026.3hPa Calm     49% 0.00in /  0mm 21.0 W/m2
07:10 49.1 °F /  9.5 °C 31.3 °F /  -0.4 °C 30.31in /  1026.3hPa Calm   2.0mph /  3.2km/h 50% 0.00in /  0mm 25.0 W/m2
07:16 49.1 °F /  9.5 °C 31.3 °F /  -0.4 °C 30.31in /  1026.3hPa Calm     50% 0.00in /  0mm 26.0 W/m2
07:22 49.3 °F /  9.6 °C 31.5 °F /  -0.3 °C 30.31in /  1026.3hPa Calm     50% 0.00in /  0mm 30.0 W/m2
07:28 49.5 °F /  9.7 °C 32.5 °F /  0.3 °C 30.31in /  1026.3hPa Calm     52% 0.00in /  0mm 33.0 W/m2
07:34 49.6 °F /  9.8 °C 32.7 °F /  0.4 °C 30.32in /  1026.6hPa Calm     52% 0.00in /  0mm 35.0 W/m2
07:40 50.0 °F /  10 °C 32.2 °F /  0.1 °C 30.32in /  1026.6hPa Calm   2.0mph /  3.2km/h 50% 0.00in /  0mm 39.0 W/m2
07:46 51.1 °F /  10.6 °C 32.5 °F /  0.3 °C 30.32in /  1026.6hPa Calm   2.0mph /  3.2km/h 49% 0.00in /  0mm 40.0 W/m2
07:52 52.0 °F /  11.1 °C 32.9 °F /  0.5 °C 30.33in /  1027hPa East 0.9mph /  1.4km/h 3.0mph /  4.8km/h 48% 0.00in /  0mm 44.0 W/m2
07:58 53.1 °F /  11.7 °C 33.4 °F /  0.8 °C 30.33in /  1027hPa Calm   1.0mph /  1.6km/h 47% 0.00in /  0mm 46.0 W/m2
08:04 55.0 °F /  12.8 °C 33.4 °F /  0.8 °C 30.33in /  1027hPa ENE 0.9mph /  1.4km/h 5.0mph /  8km/h 44% 0.00in /  0mm 53.0 W/m2
08:10 57.0 °F /  13.9 °C 34.2 °F /  1.2 °C 30.33in /  1027hPa Calm   1.0mph /  1.6km/h 42% 0.00in /  0mm 241.0 W/m2
08:16 58.6 °F /  14.8 °C 33.8 °F /  1 °C 30.33in /  1027hPa Calm   3.0mph /  4.8km/h 39% 0.00in /  0mm 267.0 W/m2
08:22 60.3 °F /  15.7 °C 33.8 °F /  1 °C 30.33in /  1027hPa NE 0.9mph /  1.4km/h 3.0mph /  4.8km/h 37% 0.00in /  0mm 288.0 W/m2
08:28 61.9 °F /  16.6 °C 34.0 °F /  1.1 °C 30.33in /  1027hPa ENE 0.9mph /  1.4km/h 3.0mph /  4.8km/h 35% 0.00in /  0mm 308.0 W/m2
08:34 63.3 °F /  17.4 °C 34.5 °F /  1.4 °C 30.33in /  1027hPa Calm   1.0mph /  1.6km/h 34% 0.00in /  0mm 327.0 W/m2
08:40 64.4 °F /  18 °C 34.7 °F /  1.5 °C 30.33in /  1027hPa East 0.9mph /  1.4km/h 2.0mph /  3.2km/h 33% 0.00in /  0mm 345.0 W/m2
08:46 65.5 °F /  18.6 °C 35.6 °F /  2 °C 30.33in /  1027hPa Calm   4.0mph /  6.4km/h 33% 0.00in /  0mm 364.0 W/m2
08:52 66.4 °F /  19.1 °C 35.6 °F /  2 °C 30.33in /  1027hPa Calm   2.0mph /  3.2km/h 32% 0.00in /  0mm 380.0 W/m2
08:58 67.5 °F /  19.7 °C 36.5 °F /  2.5 °C 30.33in /  1027hPa North 2.9mph /  4.7km/h 4.0mph /  6.4km/h 32% 0.00in /  0mm 399.0 W/m2
09:04 68.4 °F /  20.2 °C 37.4 °F /  3 °C 30.33in /  1027hPa Calm   5.0mph /  8km/h 32% 0.00in /  0mm 415.0 W/m2
09:10 69.1 °F /  20.6 °C 37.2 °F /  2.9 °C 30.33in /  1027hPa Calm   5.0mph /  8km/h 31% 0.00in /  0mm 434.0 W/m2
09:17 70.0 °F /  21.1 °C 37.9 °F /  3.3 °C 30.33in /  1027hPa NNW 0.9mph /  1.4km/h 6.0mph /  9.7km/h 31% 0.00in /  0mm 452.0 W/m2
09:23 70.5 °F /  21.4 °C 38.5 °F /  3.6 °C 30.33in /  1027hPa NNW 4.0mph /  6.4km/h 5.0mph /  8km/h 31% 0.00in /  0mm 466.0 W/m2
09:29 71.1 °F /  21.7 °C 38.8 °F /  3.8 °C 30.33in /  1027hPa Calm   3.0mph /  4.8km/h 31% 0.00in /  0mm 482.0 W/m2
09:35 71.8 °F /  22.1 °C 37.8 °F /  3.2 °C 30.33in /  1027hPa Calm   4.0mph /  6.4km/h 29% 0.00in /  0mm 497.0 W/m2
09:41 72.3 °F /  22.4 °C 39.2 °F /  4 °C 30.33in /  1027hPa Calm     30% 0.00in /  0mm 508.0 W/m2
09:47 72.5 °F /  22.5 °C 39.4 °F /  4.1 °C 30.33in /  1027hPa Calm   2.0mph /  3.2km/h 30% 0.00in /  0mm 520.0 W/m2
09:54 72.9 °F /  22.7 °C 38.7 °F /  3.7 °C 30.33in /  1027hPa Calm   2.0mph /  3.2km/h 29% 0.00in /  0mm 533.0 W/m2
10:00 73.0 °F /  22.8 °C 37.9 °F /  3.3 °C 30.33in /  1027hPa Calm   3.0mph /  4.8km/h 28% 0.00in /  0mm 547.0 W/m2
10:06 73.2 °F /  22.9 °C 39.0 °F /  3.9 °C 30.33in /  1027hPa Calm   3.0mph /  4.8km/h 29% 0.00in /  0mm 555.0 W/m2
10:12 73.4 °F /  23 °C 39.2 °F /  4 °C 30.33in /  1027hPa Calm   2.0mph /  3.2km/h 29% 0.00in /  0mm 568.0 W/m2
10:20 73.8 °F /  23.2 °C 39.6 °F /  4.2 °C 30.33in /  1027hPa NW 4.9mph /  7.9km/h 9.0mph /  14.5km/h 29% 0.00in /  0mm 582.0 W/m2
10:26 73.8 °F /  23.2 °C 39.6 °F /  4.2 °C 30.33in /  1027hPa NW 4.0mph /  6.4km/h 8.0mph /  12.9km/h 29% 0.00in /  0mm 592.0 W/m2
10:32 73.8 °F /  23.2 °C 39.6 °F /  4.2 °C 30.33in /  1027hPa NNW 2.0mph /  3.2km/h 5.0mph /  8km/h 29% 0.00in /  0mm 599.0 W/m2
10:38 73.9 °F /  23.3 °C 39.7 °F /  4.3 °C 30.33in /  1027hPa West 0.9mph /  1.4km/h 2.0mph /  3.2km/h 29% 0.00in /  0mm 603.0 W/m2
10:44 73.8 °F /  23.2 °C 39.6 °F /  4.2 °C 30.33in /  1027hPa WSW 0.9mph /  1.4km/h 3.0mph /  4.8km/h 29% 0.00in /  0mm 617.0 W/m2
10:50 73.8 °F /  23.2 °C 38.7 °F /  3.7 °C 30.33in /  1027hPa NW 4.9mph /  7.9km/h 9.0mph /  14.5km/h 28% 0.00in /  0mm 631.0 W/m2
10:56 73.9 °F /  23.3 °C 38.8 °F /  3.8 °C 30.33in /  1027hPa NNW 8.1mph /  13km/h 11.0mph /  17.7km/h 28% 0.00in /  0mm 636.0 W/m2
11:03 73.9 °F /  23.3 °C 38.8 °F /  3.8 °C 30.32in /  1026.6hPa NNW 2.9mph /  4.7km/h 9.0mph /  14.5km/h 28% 0.00in /  0mm 647.0 W/m2
11:09 74.1 °F /  23.4 °C 39.0 °F /  3.9 °C 30.32in /  1026.6hPa NNW 2.0mph /  3.2km/h 5.0mph /  8km/h 28% 0.00in /  0mm 649.0 W/m2
11:15 74.5 °F /  23.6 °C 39.2 °F /  4 °C 30.31in /  1026.3hPa North 6.0mph /  9.7km/h 6.0mph /  9.7km/h 28% 0.00in /  0mm 647.0 W/m2
11:20 74.7 °F /  23.7 °C 39.4 °F /  4.1 °C 30.31in /  1026.3hPa NNE 2.9mph /  4.7km/h 5.0mph /  8km/h 28% 0.00in /  0mm 643.0 W/m2
11:26 74.8 °F /  23.8 °C 39.6 °F /  4.2 °C 30.31in /  1026.3hPa North 2.9mph /  4.7km/h 8.0mph /  12.9km/h 28% 0.00in /  0mm 652.0 W/m2
11:33 75.2 °F /  24 °C 39.9 °F /  4.4 °C 30.31in /  1026.3hPa North 2.9mph /  4.7km/h 4.0mph /  6.4km/h 28% 0.00in /  0mm 652.0 W/m2
11:39 75.4 °F /  24.1 °C 40.1 °F /  4.5 °C 30.30in /  1026hPa NNW 0.9mph /  1.4km/h 4.0mph /  6.4km/h 28% 0.00in /  0mm 657.0 W/m2
11:45 75.6 °F /  24.2 °C 39.2 °F /  4 °C 30.30in /  1026hPa West 0.9mph /  1.4km/h 11.0mph /  17.7km/h 27% 0.00in /  0mm 652.0 W/m2
11:51 75.7 °F /  24.3 °C 40.3 °F /  4.6 °C 30.29in /  1025.6hPa NNW 2.9mph /  4.7km/h 8.0mph /  12.9km/h 28% 0.00in /  0mm 652.0 W/m2
11:57 75.7 °F /  24.3 °C 39.4 °F /  4.1 °C 30.29in /  1025.6hPa Calm   5.0mph /  8km/h 27% 0.00in /  0mm 650.0 W/m2
12:03 75.7 °F /  24.3 °C 39.4 °F /  4.1 °C 30.29in /  1025.6hPa NW 6.9mph /  11.1km/h 7.0mph /  11.3km/h 27% 0.00in /  0mm 645.0 W/m2
12:09 75.9 °F /  24.4 °C 39.6 °F /  4.2 °C 30.28in /  1025.3hPa NNW 0.9mph /  1.4km/h 7.0mph /  11.3km/h 27% 0.00in /  0mm 650.0 W/m2
12:15 76.3 °F /  24.6 °C 39.9 °F /  4.4 °C 30.28in /  1025.3hPa Calm   6.0mph /  9.7km/h 27% 0.00in /  0mm 647.0 W/m2
12:21 76.6 °F /  24.8 °C 40.1 °F /  4.5 °C 30.28in /  1025.3hPa WNW 4.0mph /  6.4km/h 6.0mph /  9.7km/h 27% 0.00in /  0mm 650.0 W/m2
12:27 76.5 °F /  24.7 °C 39.9 °F /  4.4 °C 30.28in /  1025.3hPa NNW 2.0mph /  3.2km/h 3.0mph /  4.8km/h 27% 0.00in /  0mm 635.0 W/m2
12:33 76.6 °F /  24.8 °C 40.1 °F /  4.5 °C 30.27in /  1024.9hPa NNW 8.1mph /  13km/h 10.0mph /  16.1km/h 27% 0.00in /  0mm 650.0 W/m2
12:40 76.6 °F /  24.8 °C 39.2 °F /  4 °C 30.27in /  1024.9hPa NNW 6.0mph /  9.7km/h 9.0mph /  14.5km/h 26% 0.00in /  0mm 642.0 W/m2
12:46 76.6 °F /  24.8 °C 39.2 °F /  4 °C 30.27in /  1024.9hPa Calm   7.0mph /  11.3km/h 26% 0.00in /  0mm 633.0 W/m2
12:52 76.6 °F /  24.8 °C 39.2 °F /  4 °C 30.26in /  1024.6hPa NNW 2.0mph /  3.2km/h 5.0mph /  8km/h 26% 0.00in /  0mm 626.0 W/m2
12:58 76.8 °F /  24.9 °C 39.4 °F /  4.1 °C 30.26in /  1024.6hPa Calm   6.0mph /  9.7km/h 26% 0.00in /  0mm 619.0 W/m2
13:04 77.0 °F /  25 °C 39.6 °F /  4.2 °C 30.26in /  1024.6hPa West 0.9mph /  1.4km/h 9.0mph /  14.5km/h 26% 0.00in /  0mm 610.0 W/m2
13:10 77.2 °F /  25.1 °C 39.6 °F /  4.2 °C 30.26in /  1024.6hPa North 0.9mph /  1.4km/h 4.0mph /  6.4km/h 26% 0.00in /  0mm 601.0 W/m2
13:16 77.2 °F /  25.1 °C 39.6 °F /  4.2 °C 30.26in /  1024.6hPa North 2.0mph /  3.2km/h 2.0mph /  3.2km/h 26% 0.00in /  0mm 598.0 W/m2
13:22 77.2 °F /  25.1 °C 39.6 °F /  4.2 °C 30.25in /  1024.3hPa NNW 2.0mph /  3.2km/h 6.0mph /  9.7km/h 26% 0.00in /  0mm 582.0 W/m2
13:29 77.5 °F /  25.3 °C 39.9 °F /  4.4 °C 30.25in /  1024.3hPa West 0.9mph /  1.4km/h 5.0mph /  8km/h 26% 0.00in /  0mm 571.0 W/m2
13:35 77.4 °F /  25.2 °C 38.8 °F /  3.8 °C 30.25in /  1024.3hPa Calm   10.0mph /  16.1km/h 25% 0.00in /  0mm 561.0 W/m2
13:41 77.2 °F /  25.1 °C 38.7 °F /  3.7 °C 30.25in /  1024.3hPa Calm   8.0mph /  12.9km/h 25% 0.00in /  0mm 554.0 W/m2
13:47 77.2 °F /  25.1 °C 39.6 °F /  4.2 °C 30.25in /  1024.3hPa Calm   6.0mph /  9.7km/h 26% 0.00in /  0mm 536.0 W/m2
13:53 77.2 °F /  25.1 °C 39.6 °F /  4.2 °C 30.24in /  1023.9hPa NNW 2.9mph /  4.7km/h 4.0mph /  6.4km/h 26% 0.00in /  0mm 533.0 W/m2
13:59 77.4 °F /  25.2 °C 39.7 °F /  4.3 °C 30.24in /  1023.9hPa Calm   7.0mph /  11.3km/h 26% 0.00in /  0mm 517.0 W/m2
14:05 77.4 °F /  25.2 °C 39.7 °F /  4.3 °C 30.24in /  1023.9hPa North 4.0mph /  6.4km/h 5.0mph /  8km/h 26% 0.00in /  0mm 499.0 W/m2
14:12 77.4 °F /  25.2 °C 38.8 °F /  3.8 °C 30.24in /  1023.9hPa NE 8.1mph /  13km/h 13.0mph /  20.9km/h 25% 0.00in /  0mm 483.0 W/m2
14:18 77.2 °F /  25.1 °C 38.7 °F /  3.7 °C 30.23in /  1023.6hPa Calm   2.0mph /  3.2km/h 25% 0.00in /  0mm 473.0 W/m2
14:24 77.0 °F /  25 °C 38.5 °F /  3.6 °C 30.23in /  1023.6hPa NNW 6.0mph /  9.7km/h 7.0mph /  11.3km/h 25% 0.00in /  0mm 457.0 W/m2
14:30 77.0 °F /  25 °C 39.6 °F /  4.2 °C 30.23in /  1023.6hPa Calm   9.0mph /  14.5km/h 26% 0.00in /  0mm 443.0 W/m2
14:36 77.0 °F /  25 °C 38.5 °F /  3.6 °C 30.23in /  1023.6hPa NW 4.0mph /  6.4km/h 7.0mph /  11.3km/h 25% 0.00in /  0mm 436.0 W/m2
14:42 77.2 °F /  25.1 °C 38.7 °F /  3.7 °C 30.23in /  1023.6hPa WSW 0.9mph /  1.4km/h 5.0mph /  8km/h 25% 0.00in /  0mm 415.0 W/m2
14:48 77.0 °F /  25 °C 37.4 °F /  3 °C 30.23in /  1023.6hPa NW 2.0mph /  3.2km/h 6.0mph /  9.7km/h 24% 0.00in /  0mm 399.0 W/m2
14:54 76.6 °F /  24.8 °C 38.1 °F /  3.4 °C 30.23in /  1023.6hPa Calm   3.0mph /  4.8km/h 25% 0.00in /  0mm 380.0 W/m2
15:01 76.6 °F /  24.8 °C 38.1 °F /  3.4 °C 30.23in /  1023.6hPa NNW 2.9mph /  4.7km/h 6.0mph /  9.7km/h 25% 0.00in /  0mm 369.0 W/m2
15:07 76.5 °F /  24.7 °C 39.0 °F /  3.9 °C 30.23in /  1023.6hPa North 4.0mph /  6.4km/h 6.0mph /  9.7km/h 26% 0.00in /  0mm 341.0 W/m2
15:13 76.3 °F /  24.6 °C 38.8 °F /  3.8 °C 30.23in /  1023.6hPa WNW 0.9mph /  1.4km/h 7.0mph /  11.3km/h 26% 0.00in /  0mm 323.0 W/m2
15:19 75.9 °F /  24.4 °C 38.7 °F /  3.7 °C 30.23in /  1023.6hPa North 0.9mph /  1.4km/h 7.0mph /  11.3km/h 26% 0.00in /  0mm 302.0 W/m2
15:25 75.9 °F /  24.4 °C 39.6 °F /  4.2 °C 30.23in /  1023.6hPa ENE 2.9mph /  4.7km/h 6.0mph /  9.7km/h 27% 0.00in /  0mm 281.0 W/m2
15:31 75.7 °F /  24.3 °C 39.4 °F /  4.1 °C 30.23in /  1023.6hPa NNW 2.9mph /  4.7km/h 5.0mph /  8km/h 27% 0.00in /  0mm 69.0 W/m2
15:37 75.6 °F /  24.2 °C 40.1 °F /  4.5 °C 30.23in /  1023.6hPa Calm   1.0mph /  1.6km/h 28% 0.00in /  0mm 63.0 W/m2
15:43 75.4 °F /  24.1 °C 40.1 °F /  4.5 °C 30.23in /  1023.6hPa Calm     28% 0.00in /  0mm 62.0 W/m2
15:50 75.2 °F /  24 °C 39.9 °F /  4.4 °C 30.23in /  1023.6hPa WSW 2.0mph /  3.2km/h 5.0mph /  8km/h 28% 0.00in /  0mm 56.0 W/m2
15:56 74.8 °F /  23.8 °C 39.6 °F /  4.2 °C 30.22in /  1023.2hPa NW 0.9mph /  1.4km/h 5.0mph /  8km/h 28% 0.00in /  0mm 53.0 W/m2
16:02 74.7 °F /  23.7 °C 39.4 °F /  4.1 °C 30.23in /  1023.6hPa Calm   5.0mph /  8km/h 28% 0.00in /  0mm 51.0 W/m2
16:08 74.5 °F /  23.6 °C 39.2 °F /  4 °C 30.23in /  1023.6hPa NNW 6.0mph /  9.7km/h 7.0mph /  11.3km/h 28% 0.00in /  0mm 49.0 W/m2
16:14 74.3 °F /  23.5 °C 39.0 °F /  3.9 °C 30.23in /  1023.6hPa NNE 2.0mph /  3.2km/h 7.0mph /  11.3km/h 28% 0.00in /  0mm 42.0 W/m2
16:20 73.9 °F /  23.3 °C 38.8 °F /  3.8 °C 30.23in /  1023.6hPa NNE 2.0mph /  3.2km/h 7.0mph /  11.3km/h 28% 0.00in /  0mm 39.0 W/m2
16:26 73.8 °F /  23.2 °C 38.7 °F /  3.7 °C 30.23in /  1023.6hPa Calm   4.0mph /  6.4km/h 28% 0.00in /  0mm 35.0 W/m2
16:33 73.6 °F /  23.1 °C 39.4 °F /  4.1 °C 30.23in /  1023.6hPa North 2.0mph /  3.2km/h 4.0mph /  6.4km/h 29% 0.00in /  0mm 32.0 W/m2
16:39 73.2 °F /  22.9 °C 39.0 °F /  3.9 °C 30.23in /  1023.6hPa NNW 4.0mph /  6.4km/h 4.0mph /  6.4km/h 29% 0.00in /  0mm 30.0 W/m2
16:45 73.0 °F /  22.8 °C 38.8 °F /  3.8 °C 30.23in /  1023.6hPa NNW 2.0mph /  3.2km/h 7.0mph /  11.3km/h 29% 0.00in /  0mm 26.0 W/m2
16:51 72.9 °F /  22.7 °C 38.7 °F /  3.7 °C 30.24in /  1023.9hPa North 4.0mph /  6.4km/h 9.0mph /  14.5km/h 29% 0.00in /  0mm 23.0 W/m2
16:57 72.7 °F /  22.6 °C 38.7 °F /  3.7 °C 30.24in /  1023.9hPa NNW 0.9mph /  1.4km/h 2.0mph /  3.2km/h 29% 0.00in /  0mm 19.0 W/m2
17:03 72.1 °F /  22.3 °C 38.1 °F /  3.4 °C 30.24in /  1023.9hPa Calm   1.0mph /  1.6km/h 29% 0.00in /  0mm 14.0 W/m2
17:09 71.8 °F /  22.1 °C 37.8 °F /  3.2 °C 30.24in /  1023.9hPa North 0.9mph /  1.4km/h 2.0mph /  3.2km/h 29% 0.00in /  0mm 11.0 W/m2
17:16 71.4 °F /  21.9 °C 38.3 °F /  3.5 °C 30.25in /  1024.3hPa NNE 0.9mph /  1.4km/h 3.0mph /  4.8km/h 30% 0.00in /  0mm 7.0 W/m2
17:22 71.1 °F /  21.7 °C 38.1 °F /  3.4 °C 30.25in /  1024.3hPa Calm   5.0mph /  8km/h 30% 0.00in /  0mm 0.0 W/m2
17:28 70.7 °F /  21.5 °C 37.8 °F /  3.2 °C 30.25in /  1024.3hPa NNW 2.0mph /  3.2km/h 3.0mph /  4.8km/h 30% 0.00in /  0mm 0.0 W/m2
17:34 70.3 °F /  21.3 °C 37.4 °F /  3 °C 30.25in /  1024.3hPa NE 0.9mph /  1.4km/h 1.0mph /  1.6km/h 30% 0.00in /  0mm 0.0 W/m2
17:40 70.2 °F /  21.2 °C 38.1 °F /  3.4 °C 30.25in /  1024.3hPa Calm   2.0mph /  3.2km/h 31% 0.00in /  0mm 0.0 W/m2
17:46 69.6 °F /  20.9 °C 37.6 °F /  3.1 °C 30.25in /  1024.3hPa Calm   1.0mph /  1.6km/h 31% 0.00in /  0mm 0.0 W/m2
17:52 69.1 °F /  20.6 °C 37.9 °F /  3.3 °C 30.26in /  1024.6hPa Calm   1.0mph /  1.6km/h 32% 0.00in /  0mm 0.0 W/m2
17:58 68.2 °F /  20.1 °C 37.2 °F /  2.9 °C 30.26in /  1024.6hPa NE 0.9mph /  1.4km/h 1.0mph /  1.6km/h 32% 0.00in /  0mm 0.0 W/m2
18:04 67.5 °F /  19.7 °C 37.4 °F /  3 °C 30.26in /  1024.6hPa Calm   2.0mph /  3.2km/h 33% 0.00in /  0mm 0.0 W/m2
18:11 66.9 °F /  19.4 °C 37.6 °F /  3.1 °C 30.26in /  1024.6hPa Calm   2.0mph /  3.2km/h 34% 0.00in /  0mm 0.0 W/m2
18:17 66.6 °F /  19.2 °C 37.4 °F /  3 °C 30.27in /  1024.9hPa Calm   1.0mph /  1.6km/h 34% 0.00in /  0mm 0.0 W/m2
18:23 66.0 °F /  18.9 °C 36.9 °F /  2.7 °C 30.27in /  1024.9hPa Calm   3.0mph /  4.8km/h 34% 0.00in /  0mm 0.0 W/m2
18:29 65.5 °F /  18.6 °C 37.0 °F /  2.8 °C 30.27in /  1024.9hPa ENE 2.0mph /  3.2km/h 3.0mph /  4.8km/h 35% 0.00in /  0mm 0.0 W/m2
18:35 64.9 °F /  18.3 °C 37.4 °F /  3 °C 30.28in /  1025.3hPa Calm   2.0mph /  3.2km/h 36% 0.00in /  0mm 0.0 W/m2
18:41 64.6 °F /  18.1 °C 37.0 °F /  2.8 °C 30.28in /  1025.3hPa Calm   2.0mph /  3.2km/h 36% 0.00in /  0mm 0.0 W/m2
18:47 64.2 °F /  17.9 °C 37.4 °F /  3 °C 30.28in /  1025.3hPa Calm   1.0mph /  1.6km/h 37% 0.00in /  0mm 0.0 W/m2
18:54 63.7 °F /  17.6 °C 36.9 °F /  2.7 °C 30.28in /  1025.3hPa Calm   2.0mph /  3.2km/h 37% 0.00in /  0mm 0.0 W/m2
19:00 63.3 °F /  17.4 °C 37.2 °F /  2.9 °C 30.28in /  1025.3hPa Calm   1.0mph /  1.6km/h 38% 0.00in /  0mm 0.0 W/m2
19:06 62.8 °F /  17.1 °C 37.4 °F /  3 °C 30.28in /  1025.3hPa Calm     39% 0.00in /  0mm 0.0 W/m2
19:12 62.1 °F /  16.7 °C 36.9 °F /  2.7 °C 30.28in /  1025.3hPa Calm     39% 0.00in /  0mm 0.0 W/m2
19:18 61.5 °F /  16.4 °C 37.0 °F /  2.8 °C 30.29in /  1025.6hPa Calm   1.0mph /  1.6km/h 40% 0.00in /  0mm 0.0 W/m2
19:24 61.2 °F /  16.2 °C 36.7 °F /  2.6 °C 30.29in /  1025.6hPa Calm   2.0mph /  3.2km/h 40% 0.00in /  0mm 0.0 W/m2
19:30 60.8 °F /  16 °C 36.9 °F /  2.7 °C 30.29in /  1025.6hPa Calm     41% 0.00in /  0mm 0.0 W/m2
19:36 60.4 °F /  15.8 °C 37.2 °F /  2.9 °C 30.30in /  1026hPa Calm   1.0mph /  1.6km/h 42% 0.00in /  0mm 0.0 W/m2
19:43 60.1 °F /  15.6 °C 36.3 °F /  2.4 °C 30.30in /  1026hPa Calm   1.0mph /  1.6km/h 41% 0.00in /  0mm 0.0 W/m2
19:49 59.7 °F /  15.4 °C 36.5 °F /  2.5 °C 30.30in /  1026hPa East 0.9mph /  1.4km/h 1.0mph /  1.6km/h 42% 0.00in /  0mm 0.0 W/m2
19:55 59.5 °F /  15.3 °C 36.5 °F /  2.5 °C 30.30in /  1026hPa Calm     42% 0.00in /  0mm 0.0 W/m2
20:02 59.2 °F /  15.1 °C 36.7 °F /  2.6 °C 30.30in /  1026hPa Calm     43% 0.00in /  0mm 0.0 W/m2
20:07 58.8 °F /  14.9 °C 36.3 °F /  2.4 °C 30.30in /  1026hPa Calm     43% 0.00in /  0mm 0.0 W/m2
20:13 58.5 °F /  14.7 °C 36.7 °F /  2.6 °C 30.31in /  1026.3hPa Calm   1.0mph /  1.6km/h 44% 0.00in /  0mm 0.0 W/m2
20:19 57.9 °F /  14.4 °C 36.1 °F /  2.3 °C 30.31in /  1026.3hPa Calm   1.0mph /  1.6km/h 44% 0.00in /  0mm 0.0 W/m2
20:25 57.7 °F /  14.3 °C 36.5 °F /  2.5 °C 30.31in /  1026.3hPa Calm     45% 0.00in /  0mm 0.0 W/m2
20:31 57.6 °F /  14.2 °C 36.3 °F /  2.4 °C 30.31in /  1026.3hPa Calm     45% 0.00in /  0mm 0.0 W/m2
20:37 57.6 °F /  14.2 °C 36.3 °F /  2.4 °C 30.31in /  1026.3hPa Calm   1.0mph /  1.6km/h 45% 0.00in /  0mm 0.0 W/m2
20:43 57.4 °F /  14.1 °C 36.1 °F /  2.3 °C 30.31in /  1026.3hPa Calm   1.0mph /  1.6km/h 45% 0.00in /  0mm 0.0 W/m2
20:50 57.2 °F /  14 °C 36.0 °F /  2.2 °C 30.31in /  1026.3hPa Calm     45% 0.00in /  0mm 0.0 W/m2
20:56 57.0 °F /  13.9 °C 36.5 °F /  2.5 °C 30.31in /  1026.3hPa Calm   2.0mph /  3.2km/h 46% 0.00in /  0mm 0.0 W/m2
21:02 56.8 °F /  13.8 °C 36.3 °F /  2.4 °C 30.32in /  1026.6hPa Calm     46% 0.00in /  0mm 0.0 W/m2
21:08 56.7 °F /  13.7 °C 36.1 °F /  2.3 °C 30.32in /  1026.6hPa East 0.9mph /  1.4km/h 1.0mph /  1.6km/h 46% 0.00in /  0mm 0.0 W/m2
21:14 56.7 °F /  13.7 °C 36.1 °F /  2.3 °C 30.33in /  1027hPa Calm     46% 0.00in /  0mm 0.0 W/m2
21:20 56.7 °F /  13.7 °C 36.1 °F /  2.3 °C 30.33in /  1027hPa Calm   2.0mph /  3.2km/h 46% 0.00in /  0mm 0.0 W/m2
21:26 56.7 °F /  13.7 °C 36.1 °F /  2.3 °C 30.33in /  1027hPa Calm   2.0mph /  3.2km/h 46% 0.00in /  0mm 0.0 W/m2
21:33 56.8 °F /  13.8 °C 35.8 °F /  2.1 °C 30.33in /  1027hPa Calm   1.0mph /  1.6km/h 45% 0.00in /  0mm 0.0 W/m2
21:39 56.8 °F /  13.8 °C 35.8 °F /  2.1 °C 30.33in /  1027hPa Calm   3.0mph /  4.8km/h 45% 0.00in /  0mm 0.0 W/m2
21:45 56.8 °F /  13.8 °C 35.8 °F /  2.1 °C 30.33in /  1027hPa Calm   2.0mph /  3.2km/h 45% 0.00in /  0mm 0.0 W/m2
21:51 56.8 °F /  13.8 °C 35.8 °F /  2.1 °C 30.33in /  1027hPa NE 0.9mph /  1.4km/h 2.0mph /  3.2km/h 45% 0.00in /  0mm 0.0 W/m2
21:57 56.7 °F /  13.7 °C 35.6 °F /  2 °C 30.34in /  1027.3hPa Calm   1.0mph /  1.6km/h 45% 0.00in /  0mm 0.0 W/m2
22:03 56.7 °F /  13.7 °C 35.6 °F /  2 °C 30.34in /  1027.3hPa Calm   3.0mph /  4.8km/h 45% 0.00in /  0mm 0.0 W/m2
22:09 56.7 °F /  13.7 °C 35.6 °F /  2 °C 30.34in /  1027.3hPa Calm   2.0mph /  3.2km/h 45% 0.00in /  0mm 0.0 W/m2
22:15 56.7 °F /  13.7 °C 35.6 °F /  2 °C 30.34in /  1027.3hPa ENE 0.9mph /  1.4km/h 2.0mph /  3.2km/h 45% 0.00in /  0mm 0.0 W/m2
22:21 56.5 °F /  13.6 °C 35.4 °F /  1.9 °C 30.33in /  1027hPa Calm     45% 0.00in /  0mm 0.0 W/m2
22:27 56.5 °F /  13.6 °C 36.0 °F /  2.2 °C 30.33in /  1027hPa Calm     46% 0.00in /  0mm 0.0 W/m2
22:34 56.7 °F /  13.7 °C 36.1 °F /  2.3 °C 30.33in /  1027hPa Calm     46% 0.00in /  0mm 0.0 W/m2
22:40 56.5 °F /  13.6 °C 36.0 °F /  2.2 °C 30.33in /  1027hPa Calm     46% 0.00in /  0mm 0.0 W/m2
22:46 56.5 °F /  13.6 °C 36.0 °F /  2.2 °C 30.33in /  1027hPa Calm   1.0mph /  1.6km/h 46% 0.00in /  0mm 0.0 W/m2
22:52 56.5 °F /  13.6 °C 36.0 °F /  2.2 °C 30.34in /  1027.3hPa Calm   1.0mph /  1.6km/h 46% 0.00in /  0mm 0.0 W/m2
22:58 56.5 °F /  13.6 °C 36.0 °F /  2.2 °C 30.33in /  1027hPa Calm     46% 0.00in /  0mm 0.0 W/m2
23:04 56.1 °F /  13.4 °C 35.6 °F /  2 °C 30.33in /  1027hPa Calm   2.0mph /  3.2km/h 46% 0.00in /  0mm 0.0 W/m2
23:10 55.9 °F /  13.3 °C 36.0 °F /  2.2 °C 30.33in /  1027hPa Calm     47% 0.00in /  0mm 0.0 W/m2
23:16 55.8 °F /  13.2 °C 35.8 °F /  2.1 °C 30.33in /  1027hPa Calm     47% 0.00in /  0mm 0.0 W/m2
23:22 55.4 °F /  13 °C 36.0 °F /  2.2 °C 30.33in /  1027hPa Calm     48% 0.00in /  0mm 0.0 W/m2
23:28 55.0 °F /  12.8 °C 35.8 °F /  2.1 °C 30.33in /  1027hPa Calm     48% 0.00in /  0mm 0.0 W/m2
23:34 54.7 °F /  12.6 °C 36.0 °F /  2.2 °C 30.33in /  1027hPa Calm   3.0mph /  4.8km/h 49% 0.00in /  0mm 0.0 W/m2
23:40 54.5 °F /  12.5 °C 35.8 °F /  2.1 °C 30.33in /  1027hPa Calm   5.0mph /  8km/h 49% 0.00in /  0mm 0.0 W/m2
23:47 54.3 °F /  12.4 °C 35.6 °F /  2 °C 30.34in /  1027.3hPa Calm     49% 0.00in /  0mm 0.0 W/m2
23:53 54.1 °F /  12.3 °C 35.4 °F /  1.9 °C 30.34in /  1027.3hPa Calm     49% 0.00in /  0mm 0.0 W/m2
23:59 54.0 °F /  12.2 °C 35.2 °F /  1.8 °C 30.34in /  1027.3hPa Calm     49% 0.00in /  0mm 0.0 W/m2
Olympia, Windhoek, Namibia
Compliments of Weather Underground - 3 mb